Time;durP1;ratioP1;P1;durP2;ratioP2;P2;SDS_P1;SDS_P2;PMS_P1;PMS_P2;Temp;Humidity;BMP_temperature;BMP_pressure;BME280_temperature;BME280_humidity;BME280_pressure;Samples;Min_cycle;Max_cycle;Signal;HPM_P1;HPM_P2
2022/12/08 00:01:40;;;;;;;5.57;4.60;;;3.80;99.90;;;;;;4974530;28;20223;-89
2022/12/08 00:04:08;;;;;;;4.22;3.85;;;3.90;99.90;;;;;;4974270;28;20233;-89
2022/12/08 00:09:29;;;;;;;4.88;3.92;;;3.80;99.90;;;;;;4974016;28;20251;-81
2022/12/08 00:12:07;;;;;;;4.40;3.97;;;3.80;99.90;;;;;;4973772;28;20208;-81
2022/12/08 00:14:37;;;;;;;4.47;4.05;;;3.80;99.90;;;;;;4959981;28;20224;-88
2022/12/08 00:17:06;;;;;;;4.60;4.13;;;3.80;99.90;;;;;;4974225;28;20215;-88
2022/12/08 00:19:35;;;;;;;5.07;4.53;;;3.80;99.90;;;;;;4973887;28;20208;-89
2022/12/08 00:22:03;;;;;;;4.90;4.35;;;3.80;99.90;;;;;;4974309;28;20216;-89
2022/12/08 00:24:37;;;;;;;6.18;4.53;;;3.80;99.90;;;;;;4974586;28;20232;-88
2022/12/08 00:27:06;;;;;;;4.45;3.95;;;3.70;99.90;;;;;;4974205;28;20229;-87
2022/12/08 00:29:34;;;;;;;4.10;3.70;;;3.80;99.90;;;;;;4974065;28;20213;-89
2022/12/08 00:32:02;;;;;;;3.97;3.67;;;3.80;99.90;;;;;;4974593;28;20213;-89
2022/12/08 00:34:31;;;;;;;3.80;3.50;;;3.70;99.90;;;;;;4973995;28;20224;-89
2022/12/08 00:36:59;;;;;;;3.60;3.30;;;3.70;99.90;;;;;;4973995;28;20291;-81
2022/12/08 00:39:28;;;;;;;4.15;3.70;;;3.80;99.90;;;;;;4973787;28;20216;-81
2022/12/08 00:42:12;;;;;;;4.22;3.83;;;3.80;99.90;;;;;;4973785;28;20216;-89
2022/12/08 00:44:41;;;;;;;3.75;3.40;;;3.80;99.90;;;;;;4973683;28;20267;-81
2022/12/08 00:47:10;;;;;;;4.65;4.10;;;3.80;99.90;;;;;;4972978;28;20327;-88
2022/12/08 00:49:39;;;;;;;5.50;3.25;;;3.90;99.90;;;;;;4973678;28;20211;-89
2022/12/08 00:52:07;;;;;;;3.33;3.03;;;3.90;99.90;;;;;;4974294;28;20539;-89
2022/12/08 00:54:36;;;;;;;3.30;3.05;;;3.90;99.90;;;;;;4974082;28;20264;-88
2022/12/08 00:57:06;;;;;;;4.20;3.63;;;3.90;99.90;;;;;;4973693;28;20216;-89
2022/12/08 00:59:34;;;;;;;3.67;3.38;;;4.00;99.90;;;;;;4973440;28;20239;-90
2022/12/08 01:02:02;;;;;;;3.83;3.45;;;4.00;99.90;;;;;;4973808;28;20295;-89
2022/12/08 01:04:31;;;;;;;4.47;3.95;;;4.00;99.90;;;;;;4973192;28;20232;-89
2022/12/08 01:06:59;;;;;;;4.43;3.45;;;4.00;99.90;;;;;;4972724;28;20320;-89
2022/12/08 01:09:27;;;;;;;4.70;3.10;;;4.00;99.90;;;;;;4973289;28;20291;-89
2022/12/08 01:11:58;;;;;;;14.90;4.82;;;4.00;99.90;;;;;;4972788;28;20303;-90
2022/12/08 01:14:28;;;;;;;4.30;3.90;;;4.00;99.90;;;;;;4973058;28;20319;-89
2022/12/08 01:16:56;;;;;;;4.15;3.83;;;4.00;99.90;;;;;;4973225;28;20288;-89
2022/12/08 01:19:25;;;;;;;5.05;4.25;;;4.00;99.90;;;;;;4972860;28;20227;-89
2022/12/08 01:21:53;;;;;;;4.75;4.35;;;3.90;99.90;;;;;;4972987;28;20216;-89
2022/12/08 01:24:22;;;;;;;4.55;4.00;;;3.90;99.90;;;;;;4972862;28;20288;-89
2022/12/08 01:26:51;;;;;;;6.60;4.45;;;3.80;99.90;;;;;;4973015;28;20235;-89
2022/12/08 01:29:20;;;;;;;4.13;3.72;;;3.80;99.90;;;;;;4973707;28;20220;-89
2022/12/08 01:31:49;;;;;;;4.25;3.58;;;3.90;99.90;;;;;;4973581;28;20239;-89
2022/12/08 01:34:19;;;;;;;4.40;3.38;;;3.80;99.90;;;;;;4955319;28;20237;-88
2022/12/08 01:36:47;;;;;;;4.30;3.38;;;3.80;99.90;;;;;;4957200;28;20207;-89
2022/12/08 01:39:17;;;;;;;3.63;3.33;;;3.80;99.90;;;;;;4974530;28;20213;-89
2022/12/08 01:41:46;;;;;;;3.97;3.55;;;3.80;99.90;;;;;;4975054;28;20298;-82
2022/12/08 01:45:02;;;;;;;4.68;4.18;;;3.80;99.90;;;;;;4974832;28;20260;-81
2022/12/08 01:47:37;;;;;;;3.50;3.20;;;3.90;99.90;;;;;;4895896;29;20291;-82
2022/12/08 01:50:08;;;;;;;5.50;3.97;;;3.80;99.90;;;;;;4896023;29;20210;-81
2022/12/08 01:52:40;;;;;;;4.30;3.85;;;3.80;99.90;;;;;;4926587;28;20244;-81
2022/12/08 01:55:16;;;;;;;4.65;4.00;;;3.70;99.90;;;;;;4955592;28;20296;-83
2022/12/08 01:57:47;;;;;;;3.78;3.47;;;3.70;99.90;;;;;;4958790;28;20236;-83
2022/12/08 02:00:19;;;;;;;3.72;3.42;;;3.70;99.90;;;;;;4955464;28;20296;-81
2022/12/08 02:02:55;;;;;;;7.88;3.35;;;3.60;99.90;;;;;;4955141;28;20311;-81
2022/12/08 02:05:26;;;;;;;2.97;2.78;;;3.60;99.90;;;;;;4959236;28;20271;-81
2022/12/08 02:07:55;;;;;;;3.30;2.92;;;3.60;99.90;;;;;;4973728;28;20303;-81
2022/12/08 02:10:27;;;;;;;4.38;3.67;;;3.60;99.90;;;;;;4974302;28;20271;-81
2022/12/08 02:12:57;;;;;;;3.83;3.47;;;3.60;99.90;;;;;;4974923;28;20222;-83
2022/12/08 02:15:34;;;;;;;3.85;3.53;;;3.60;99.90;;;;;;4974201;28;20210;-89
2022/12/08 02:18:18;;;;;;;3.83;3.53;;;3.60;99.90;;;;;;4973804;28;20212;-88
2022/12/08 02:20:56;;;;;;;4.03;3.72;;;3.60;99.90;;;;;;4974750;28;20222;-88
2022/12/08 02:23:34;;;;;;;4.40;3.15;;;3.60;99.90;;;;;;4974661;28;20226;-89
2022/12/08 02:26:34;;;;;;;3.28;2.85;;;3.60;99.90;;;;;;4974242;28;20214;-89
2022/12/08 02:29:32;;;;;;;4.15;3.75;;;3.60;99.90;;;;;;4954834;28;20208;-88
2022/12/08 02:32:23;;;;;;;3.20;2.90;;;3.60;99.90;;;;;;4954629;28;20205;-89
2022/12/08 02:34:58;;;;;;;3.33;3.03;;;3.60;99.90;;;;;;4954974;28;20287;-89
2022/12/08 02:37:29;;;;;;;3.90;3.58;;;3.60;99.90;;;;;;4956672;28;20217;-88
2022/12/08 02:40:03;;;;;;;4.43;3.88;;;3.70;99.90;;;;;;4962471;28;20208;-88
2022/12/08 02:42:37;;;;;;;4.25;3.60;;;3.70;99.90;;;;;;4976162;28;20232;-88
2022/12/08 02:45:11;;;;;;;5.18;4.07;;;3.70;99.90;;;;;;4974616;28;20288;-89
2022/12/08 02:47:41;;;;;;;2.83;2.63;;;3.80;99.90;;;;;;4974280;28;20232;-89
2022/12/08 02:50:12;;;;;;;4.53;3.58;;;3.80;99.90;;;;;;4973787;28;20300;-89
2022/12/08 02:52:42;;;;;;;3.58;3.28;;;3.80;99.90;;;;;;4974128;28;20208;-89
2022/12/08 02:55:25;;;;;;;2.90;2.70;;;3.80;99.90;;;;;;4973559;28;20236;-89
2022/12/08 02:58:07;;;;;;;3.38;3.03;;;3.80;99.90;;;;;;4973000;28;20212;-89
2022/12/08 03:00:43;;;;;;;3.50;3.25;;;3.90;99.90;;;;;;4972660;28;20264;-89
2022/12/08 03:03:22;;;;;;;3.50;3.22;;;3.90;99.90;;;;;;4973027;28;20311;-89
2022/12/08 03:06:04;;;;;;;3.45;3.15;;;3.90;99.90;;;;;;4973324;28;20205;-89
2022/12/08 03:08:40;;;;;;;3.00;2.80;;;3.90;99.90;;;;;;4972542;28;20231;-89
2022/12/08 03:11:15;;;;;;;5.00;2.88;;;3.90;99.90;;;;;;4972870;28;20296;-89
2022/12/08 03:13:46;;;;;;;3.42;3.00;;;3.90;99.90;;;;;;4972654;28;20428;-89
2022/12/08 03:16:18;;;;;;;5.70;3.38;;;4.00;99.90;;;;;;4972590;28;20215;-89
2022/12/08 03:18:50;;;;;;;3.33;3.05;;;3.90;99.90;;;;;;4972876;28;20259;-89
2022/12/08 03:21:21;;;;;;;3.88;3.45;;;3.90;99.90;;;;;;4972905;28;20251;-89
2022/12/08 03:23:54;;;;;;;3.67;3.38;;;4.00;99.90;;;;;;4973132;28;20232;-89
2022/12/08 03:26:30;;;;;;;5.43;3.25;;;4.00;99.90;;;;;;4972614;28;20292;-89
2022/12/08 03:28:59;;;;;;;6.10;3.28;;;4.00;99.90;;;;;;4972308;28;20242;-89
2022/12/08 03:31:30;;;;;;;3.90;3.50;;;3.90;99.90;;;;;;4972486;28;20212;-89
2022/12/08 03:34:00;;;;;;;4.22;3.70;;;3.90;99.90;;;;;;4972552;28;20235;-89
2022/12/08 03:36:29;;;;;;;3.55;3.08;;;3.90;99.90;;;;;;4972573;28;20212;-89
2022/12/08 03:38:58;;;;;;;3.92;3.10;;;3.90;99.90;;;;;;4971735;28;20310;-89
2022/12/08 03:41:26;;;;;;;3.60;2.80;;;3.90;99.90;;;;;;4972350;28;20205;-89
2022/12/08 03:43:57;;;;;;;3.45;3.15;;;3.90;99.90;;;;;;4952829;28;20228;-89
2022/12/08 03:46:27;;;;;;;4.63;4.22;;;3.90;99.90;;;;;;4953427;28;20211;-89
2022/12/08 03:48:54;;;;;;;5.18;4.15;;;4.00;99.90;;;;;;4969584;28;20213;-89
2022/12/08 03:51:23;;;;;;;6.25;4.72;;;4.00;99.90;;;;;;4972445;28;20209;-89
2022/12/08 03:53:54;;;;;;;5.90;3.97;;;4.00;99.90;;;;;;4972470;28;20285;-89
2022/12/08 03:56:25;;;;;;;5.25;4.32;;;4.00;99.90;;;;;;4934326;28;1190239;-89
2022/12/08 03:58:54;;;;;;;6.05;4.63;;;3.90;99.90;;;;;;4977111;28;20207;-89
2022/12/08 04:01:23;;;;;;;4.10;3.80;;;3.90;99.90;;;;;;4976764;28;20228;-89
2022/12/08 04:03:52;;;;;;;4.28;3.60;;;3.90;99.90;;;;;;4976756;28;20221;-89
2022/12/08 04:06:21;;;;;;;6.07;4.88;;;3.90;99.90;;;;;;4976727;28;20211;-88
2022/12/08 04:08:51;;;;;;;4.78;4.28;;;3.90;99.90;;;;;;4976479;28;20234;-89
2022/12/08 04:11:21;;;;;;;4.55;4.10;;;3.90;99.90;;;;;;4976589;28;20250;-89
2022/12/08 04:13:49;;;;;;;5.75;4.18;;;3.80;99.90;;;;;;4976613;28;20236;-89
2022/12/08 04:16:19;;;;;;;5.32;4.32;;;3.80;99.90;;;;;;4976511;28;20299;-89
2022/12/08 04:18:48;;;;;;;4.10;3.75;;;3.80;99.90;;;;;;4957523;28;20205;-89
2022/12/08 04:21:16;;;;;;;4.18;3.78;;;3.80;99.90;;;;;;4959979;28;20207;-90
2022/12/08 04:23:45;;;;;;;4.50;3.35;;;3.80;99.90;;;;;;4976346;28;20328;-89
2022/12/08 04:26:14;;;;;;;3.83;3.40;;;3.70;99.90;;;;;;4976600;28;20227;-89
2022/12/08 04:28:44;;;;;;;4.28;3.88;;;3.70;99.90;;;;;;4975743;28;20224;-89
2022/12/08 04:31:13;;;;;;;3.65;3.28;;;3.70;99.90;;;;;;4975886;28;20285;-89
2022/12/08 04:33:42;;;;;;;4.93;3.25;;;3.70;99.90;;;;;;4975948;28;20240;-89
2022/12/08 04:36:10;;;;;;;3.42;3.13;;;3.70;99.90;;;;;;4976011;28;20212;-89
2022/12/08 04:38:38;;;;;;;3.67;3.38;;;3.70;99.90;;;;;;4975775;28;20304;-89
2022/12/08 04:41:07;;;;;;;3.85;3.42;;;3.70;99.90;;;;;;4975978;28;20203;-89
2022/12/08 04:43:36;;;;;;;5.20;4.05;;;3.70;99.90;;;;;;4975605;28;20236;-89
2022/12/08 04:46:08;;;;;;;6.22;3.65;;;3.70;99.90;;;;;;4975871;28;20204;-89
2022/12/08 04:48:37;;;;;;;3.63;3.33;;;3.70;99.90;;;;;;4975567;28;20252;-89
2022/12/08 04:51:07;;;;;;;5.70;4.53;;;3.70;99.90;;;;;;4975836;28;20216;-89
2022/12/08 04:53:36;;;;;;;3.92;3.58;;;3.70;99.90;;;;;;4976006;28;20224;-89
2022/12/08 04:56:12;;;;;;;4.03;3.63;;;3.70;99.90;;;;;;4975565;28;20205;-89
2022/12/08 04:58:40;;;;;;;5.28;3.67;;;3.70;99.90;;;;;;4975992;28;20211;-89
2022/12/08 05:01:10;;;;;;;4.22;3.80;;;3.70;99.90;;;;;;4975679;28;20203;-89
2022/12/08 05:03:38;;;;;;;3.95;3.65;;;3.80;99.90;;;;;;4975764;28;20316;-89
2022/12/08 05:06:07;;;;;;;5.63;4.15;;;3.80;99.90;;;;;;4974583;28;20218;-89
2022/12/08 05:08:35;;;;;;;5.13;4.60;;;3.80;99.90;;;;;;4975427;28;20232;-89
2022/12/08 05:11:05;;;;;;;4.28;3.88;;;3.70;99.90;;;;;;4975436;28;20225;-89
2022/12/08 05:13:34;;;;;;;4.18;3.80;;;3.80;99.90;;;;;;4975343;28;20255;-89
2022/12/08 05:16:07;;;;;;;6.25;3.53;;;3.80;99.90;;;;;;4975238;28;20205;-89
2022/12/08 05:18:38;;;;;;;4.15;3.75;;;3.80;99.90;;;;;;4975568;28;20307;-89
2022/12/08 05:21:07;;;;;;;8.13;4.72;;;3.80;99.90;;;;;;4975316;28;20203;-89
2022/12/08 05:23:35;;;;;;;7.47;4.00;;;3.80;99.90;;;;;;4975152;28;20233;-89
2022/12/08 05:26:04;;;;;;;3.53;3.22;;;3.90;99.90;;;;;;4974817;28;20243;-89
2022/12/08 05:28:32;;;;;;;4.30;3.90;;;3.90;99.90;;;;;;4955780;28;20235;-89
2022/12/08 05:31:10;;;;;;;4.70;4.30;;;3.80;99.90;;;;;;4955913;28;20209;-89
2022/12/08 05:33:43;;;;;;;6.18;4.60;;;3.90;99.90;;;;;;4955949;28;20229;-89
2022/12/08 05:36:14;;;;;;;3.80;3.50;;;3.90;99.90;;;;;;4970949;28;20201;-89
2022/12/08 05:38:44;;;;;;;4.45;3.85;;;3.90;99.90;;;;;;4974413;28;20200;-89
2022/12/08 05:41:15;;;;;;;6.22;3.63;;;3.90;99.90;;;;;;4975343;28;20204;-89
2022/12/08 05:43:43;;;;;;;3.95;3.42;;;3.90;99.90;;;;;;4974877;28;20227;-89
2022/12/08 05:46:12;;;;;;;3.50;3.17;;;4.00;99.90;;;;;;4975150;28;20222;-89
2022/12/08 05:48:42;;;;;;;4.93;3.72;;;4.00;99.90;;;;;;4974469;28;20369;-89
2022/12/08 05:51:17;;;;;;;3.78;3.47;;;4.00;99.90;;;;;;4974668;28;20295;-89
2022/12/08 05:53:45;;;;;;;5.20;4.05;;;4.00;99.90;;;;;;4974535;28;20311;-89
2022/12/08 05:56:14;;;;;;;13.60;6.95;;;4.00;99.90;;;;;;4974116;28;20208;-89
2022/12/08 05:58:42;;;;;;;6.50;5.63;;;4.00;99.90;;;;;;4974361;28;20208;-89
2022/12/08 06:01:19;;;;;;;4.60;4.20;;;4.00;99.90;;;;;;4974738;28;20216;-89
2022/12/08 06:03:49;;;;;;;3.80;3.47;;;4.00;99.90;;;;;;4975110;28;20271;-89
2022/12/08 06:06:17;;;;;;;6.15;5.05;;;4.00;99.90;;;;;;4973900;28;20288;-88
2022/12/08 06:08:46;;;;;;;4.18;3.88;;;4.00;99.90;;;;;;4974831;28;20204;-88
2022/12/08 06:11:19;;;;;;;5.38;3.78;;;3.90;99.90;;;;;;4975358;28;20212;-88
2022/12/08 06:13:47;;;;;;;5.32;4.30;;;3.90;99.90;;;;;;4973884;28;20228;-81
2022/12/08 06:16:16;;;;;;;4.35;3.75;;;3.90;99.90;;;;;;4974685;28;20218;-81
2022/12/08 06:18:45;;;;;;;6.00;3.95;;;3.80;99.90;;;;;;4973656;28;20232;-81
2022/12/08 06:21:17;;;;;;;4.65;4.25;;;3.80;99.90;;;;;;4973845;28;20222;-81
2022/12/08 06:23:48;;;;;;;5.28;4.00;;;3.80;99.90;;;;;;4973685;28;20227;-89
2022/12/08 06:26:17;;;;;;;5.45;3.95;;;3.80;99.90;;;;;;4973361;28;20295;-88
2022/12/08 06:28:45;;;;;;;6.18;4.32;;;3.80;99.90;;;;;;4973790;28;20218;-88
2022/12/08 06:31:16;;;;;;;4.45;4.07;;;3.80;99.90;;;;;;4973795;28;20303;-88
2022/12/08 06:33:45;;;;;;;5.40;3.88;;;3.80;99.90;;;;;;4973333;28;20326;-89
2022/12/08 06:36:16;;;;;;;4.88;4.07;;;3.80;99.90;;;;;;4973225;28;20219;-88
2022/12/08 06:38:44;;;;;;;5.10;4.38;;;3.80;99.90;;;;;;4972862;28;20215;-88
2022/12/08 06:41:14;;;;;;;4.55;4.05;;;3.80;99.90;;;;;;4972375;28;20216;-88
2022/12/08 06:43:42;;;;;;;3.97;3.63;;;3.80;99.90;;;;;;4973847;28;20236;-81
2022/12/08 06:46:13;;;;;;;4.65;3.75;;;3.80;99.90;;;;;;4974248;28;20251;-81
2022/12/08 06:48:42;;;;;;;3.53;3.08;;;3.80;99.90;;;;;;4973388;28;20364;-81
2022/12/08 06:51:12;;;;;;;3.67;3.35;;;3.80;99.90;;;;;;4973327;28;20304;-81
2022/12/08 06:53:42;;;;;;;4.28;3.88;;;3.90;99.90;;;;;;4973267;28;20238;-81
2022/12/08 06:56:12;;;;;;;4.82;4.40;;;3.90;99.90;;;;;;4973640;28;20215;-88
2022/12/08 06:58:40;;;;;;;5.35;4.88;;;3.90;99.90;;;;;;4973597;28;20254;-89
2022/12/08 07:01:10;;;;;;;4.68;3.78;;;3.90;99.90;;;;;;4973311;28;20204;-88
2022/12/08 07:03:40;;;;;;;3.95;3.63;;;3.90;99.90;;;;;;4973220;28;20232;-89
2022/12/08 07:06:14;;;;;;;4.75;4.20;;;3.90;99.90;;;;;;4973054;28;20264;-88
2022/12/08 07:08:43;;;;;;;5.57;4.55;;;3.90;99.90;;;;;;4972976;28;20299;-88
2022/12/08 07:11:12;;;;;;;5.03;4.50;;;3.90;99.90;;;;;;4972839;28;20224;-89
2022/12/08 07:13:48;;;;;;;4.53;4.13;;;4.00;99.90;;;;;;4972698;28;20239;-89
2022/12/08 07:16:16;;;;;;;6.60;5.05;;;4.00;99.90;;;;;;4973385;28;20200;-89
2022/12/08 07:18:44;;;;;;;4.50;4.10;;;3.90;99.90;;;;;;4973079;28;20217;-90
2022/12/08 07:21:15;;;;;;;5.00;4.50;;;4.00;99.90;;;;;;4973424;28;20287;-90
2022/12/08 07:23:57;;;;;;;10.38;4.40;;;4.00;99.90;;;;;;4974073;28;20233;-89
2022/12/08 07:26:25;;;;;;;6.95;4.07;;;4.00;99.90;;;;;;4972657;28;20292;-89
2022/12/08 07:28:55;;;;;;;5.15;4.68;;;4.00;99.90;;;;;;4973034;28;20211;-88
2022/12/08 07:31:25;;;;;;;5.28;4.78;;;4.00;99.90;;;;;;4976056;28;20281;-87
2022/12/08 07:33:54;;;;;;;5.65;5.15;;;4.00;99.90;;;;;;4976526;28;20220;-87
2022/12/08 07:36:23;;;;;;;4.78;4.10;;;4.00;99.90;;;;;;4976620;28;20219;-84
2022/12/08 07:38:53;;;;;;;5.50;4.97;;;4.00;99.90;;;;;;4976105;28;20283;-85
2022/12/08 07:41:24;;;;;;;5.57;4.60;;;4.10;99.90;;;;;;4976699;28;20205;-85
2022/12/08 07:43:53;;;;;;;4.45;4.05;;;4.10;99.90;;;;;;4976425;28;20228;-85
2022/12/08 07:46:24;;;;;;;4.43;4.05;;;4.20;99.90;;;;;;4975969;28;20296;-85
2022/12/08 07:48:55;;;;;;;5.68;4.88;;;4.20;99.90;;;;;;4976388;28;20209;-85
2022/12/08 07:51:24;;;;;;;4.90;4.50;;;4.30;99.90;;;;;;5075934;23;20250;-83
2022/12/08 07:54:13;;;;;;;5.40;4.90;;;4.40;99.90;;;;;;4983740;28;20236;-83
2022/12/08 07:56:42;;;;;;;4.65;4.25;;;4.40;99.90;;;;;;4976177;28;20213;-83
2022/12/08 07:59:10;;;;;;;4.40;3.97;;;4.50;99.90;;;;;;4975710;28;20235;-83
2022/12/08 08:01:38;;;;;;;6.60;4.75;;;4.50;99.90;;;;;;4974908;28;20292;-88
2022/12/08 08:04:07;;;;;;;7.07;5.40;;;4.50;99.90;;;;;;4976559;28;20232;-90
2022/12/08 08:06:36;;;;;;;5.35;4.85;;;4.60;99.90;;;;;;4977181;28;20240;-89
2022/12/08 08:09:05;;;;;;;5.40;4.90;;;4.60;99.90;;;;;;4977088;28;20295;-89
2022/12/08 08:11:35;;;;;;;7.55;5.50;;;4.60;99.90;;;;;;4976720;28;20255;-89
2022/12/08 08:14:03;;;;;;;6.63;4.95;;;4.70;99.90;;;;;;4976705;28;20235;-89
2022/12/08 08:16:31;;;;;;;11.38;6.07;;;4.80;99.90;;;;;;4976926;28;20212;-90
2022/12/08 08:19:05;;;;;;;5.50;4.70;;;4.80;99.90;;;;;;4976304;28;20437;-89
2022/12/08 08:21:35;;;;;;;4.45;4.07;;;4.90;99.90;;;;;;4976579;28;20215;-89
2022/12/08 08:24:13;;;;;;;5.03;4.45;;;4.90;99.90;;;;;;4975767;28;20236;-85
2022/12/08 08:26:44;;;;;;;5.13;4.72;;;5.00;99.90;;;;;;4975667;28;20239;-83
2022/12/08 08:29:12;;;;;;;8.40;5.20;;;5.10;99.90;;;;;;4976640;28;20219;-89
2022/12/08 08:31:40;;;;;;;5.57;4.70;;;5.10;99.90;;;;;;4976371;28;20250;-91
2022/12/08 08:34:09;;;;;;;14.98;4.55;;;5.10;99.90;;;;;;4975878;28;20244;-83
2022/12/08 08:36:38;;;;;;;6.43;5.20;;;5.00;99.90;;;;;;4975964;28;20208;-84
2022/12/08 08:39:10;;;;;;;6.53;5.55;;;4.90;99.90;;;;;;4978453;28;20212;-89
2022/12/08 08:41:47;;;;;;;5.15;4.65;;;4.90;99.90;;;;;;4978034;28;20209;-90
2022/12/08 08:44:17;;;;;;;4.65;4.22;;;4.80;99.90;;;;;;4977858;28;20287;-89
2022/12/08 08:46:45;;;;;;;5.38;4.60;;;4.80;99.90;;;;;;4976934;28;20208;-89
2022/12/08 08:49:13;;;;;;;5.05;4.55;;;4.90;99.90;;;;;;4976635;28;20216;-89
2022/12/08 08:51:42;;;;;;;6.72;5.43;;;5.00;99.90;;;;;;4976407;28;20315;-89
2022/12/08 08:54:10;;;;;;;6.95;5.00;;;5.00;99.90;;;;;;4976560;28;20229;-89
2022/12/08 08:56:39;;;;;;;5.72;4.90;;;5.10;99.90;;;;;;4976209;28;20208;-89
2022/12/08 08:59:10;;;;;;;5.53;4.90;;;5.20;99.90;;;;;;4975820;28;20267;-89
2022/12/08 09:01:38;;;;;;;6.13;5.53;;;5.30;99.90;;;;;;4975951;28;20213;-89
2022/12/08 09:04:06;;;;;;;5.82;5.13;;;5.30;99.90;;;;;;4975653;28;20247;-89
2022/12/08 09:06:35;;;;;;;5.00;4.38;;;5.40;99.90;;;;;;4975897;28;20291;-89
2022/12/08 09:09:03;;;;;;;7.50;4.70;;;5.30;99.90;;;;;;4975626;28;20219;-89
2022/12/08 09:11:32;;;;;;;5.15;4.75;;;5.30;99.90;;;;;;4975226;28;20252;-89
2022/12/08 09:14:01;;;;;;;6.22;5.38;;;5.30;99.90;;;;;;4975684;28;20217;-89
2022/12/08 09:16:31;;;;;;;5.18;4.70;;;5.20;99.90;;;;;;4975731;28;20250;-89
2022/12/08 09:19:05;;;;;;;5.03;4.60;;;5.20;99.90;;;;;;4975691;28;20258;-89
2022/12/08 09:21:34;;;;;;;5.97;5.38;;;5.30;99.90;;;;;;4975565;28;20215;-89
2022/12/08 09:24:02;;;;;;;6.32;5.43;;;5.30;99.90;;;;;;4975374;28;20311;-89
2022/12/08 09:26:31;;;;;;;6.93;5.95;;;5.40;99.90;;;;;;4974683;28;20212;-83
2022/12/08 09:28:59;;;;;;;6.38;5.75;;;5.40;99.90;;;;;;4975380;28;20212;-83
2022/12/08 09:31:27;;;;;;;5.25;4.75;;;5.50;99.90;;;;;;4975128;28;20225;-83
2022/12/08 09:33:58;;;;;;;5.85;5.35;;;5.50;99.90;;;;;;4975307;28;20239;-83
2022/12/08 09:36:26;;;;;;;5.65;5.13;;;5.40;99.90;;;;;;4975122;28;20300;-83
2022/12/08 09:38:55;;;;;;;7.40;5.40;;;5.40;99.90;;;;;;4974951;28;20295;-83
2022/12/08 09:41:32;;;;;;;5.35;4.85;;;5.50;99.90;;;;;;4975533;28;20205;-83
2022/12/08 09:44:33;;;;;;;5.97;5.38;;;5.50;99.90;;;;;;4975255;28;20251;-83
2022/12/08 09:47:05;;;;;;;5.72;5.20;;;5.50;99.90;;;;;;4974811;28;20219;-83
2022/12/08 09:49:43;;;;;;;5.70;5.20;;;5.50;99.90;;;;;;4975425;28;20213;-83
2022/12/08 09:52:20;;;;;;;6.35;5.75;;;5.60;99.90;;;;;;4974486;28;20267;-83
2022/12/08 09:54:48;;;;;;;6.80;5.47;;;5.70;99.90;;;;;;4975237;28;20315;-83
2022/12/08 09:57:20;;;;;;;5.20;4.50;;;5.70;99.90;;;;;;4974524;28;20204;-83
2022/12/08 09:59:52;;;;;;;5.65;5.07;;;5.80;99.90;;;;;;4974708;28;20251;-83
2022/12/08 10:02:23;;;;;;;5.82;5.22;;;6.00;99.90;;;;;;4975237;28;20295;-83
2022/12/08 10:04:55;;;;;;;5.72;4.68;;;6.10;99.90;;;;;;4975120;28;20228;-84
2022/12/08 10:07:33;;;;;;;6.03;4.78;;;6.10;99.90;;;;;;4974516;28;20215;-84
2022/12/08 10:10:11;;;;;;;5.70;4.63;;;6.10;99.90;;;;;;4974256;28;20216;-84
2022/12/08 10:12:46;;;;;;;4.88;4.47;;;6.10;99.90;;;;;;4974570;28;20228;-84
2022/12/08 10:15:33;;;;;;;5.43;4.72;;;6.20;99.90;;;;;;4974755;28;20207;-84
2022/12/08 10:18:09;;;;;;;7.55;5.75;;;6.30;99.90;;;;;;4974551;28;20251;-84
2022/12/08 10:20:42;;;;;;;5.72;4.95;;;6.50;99.90;;;;;;4974686;28;20220;-84
2022/12/08 10:23:19;;;;;;;5.57;5.07;;;6.60;99.90;;;;;;4974096;28;20235;-84
2022/12/08 10:25:49;;;;;;;6.35;4.88;;;6.80;99.90;;;;;;4974355;28;20212;-84
2022/12/08 10:28:18;;;;;;;5.22;4.80;;;6.90;99.90;;;;;;4974312;28;20216;-84
2022/12/08 10:30:46;;;;;;;5.65;5.07;;;7.20;99.90;;;;;;4974484;28;20212;-83
2022/12/08 10:33:17;;;;;;;5.95;5.10;;;7.30;99.90;;;;;;4974528;28;20310;-84
2022/12/08 10:35:49;;;;;;;5.65;4.93;;;7.50;99.90;;;;;;4974287;28;20272;-84
2022/12/08 10:38:22;;;;;;;7.43;5.43;;;7.50;99.90;;;;;;4973911;28;20216;-84
2022/12/08 10:40:52;;;;;;;4.55;4.15;;;7.30;99.90;;;;;;4974173;28;20205;-84
2022/12/08 10:43:24;;;;;;;5.35;4.75;;;7.10;99.90;;;;;;4974258;28;20229;-84
2022/12/08 10:45:53;;;;;;;7.38;5.45;;;6.90;99.90;;;;;;4974219;28;20218;-84
2022/12/08 10:48:26;;;;;;;6.82;5.60;;;6.90;99.90;;;;;;4973818;28;20223;-84
2022/12/08 10:50:56;;;;;;;6.65;5.30;;;6.90;99.90;;;;;;4974142;28;20224;-84
2022/12/08 10:53:27;;;;;;;5.13;4.45;;;6.70;99.90;;;;;;4974708;28;20307;-89
2022/12/08 10:56:07;;;;;;;5.30;4.80;;;6.70;99.90;;;;;;4974176;28;20295;-89
2022/12/08 10:58:39;;;;;;;13.63;4.68;;;6.60;99.90;;;;;;4973848;28;20212;-89
2022/12/08 11:01:12;;;;;;;6.05;5.35;;;6.60;99.90;;;;;;4974022;28;20212;-83
2022/12/08 11:03:46;;;;;;;6.22;5.03;;;6.50;99.90;;;;;;4973542;28;20228;-84
2022/12/08 11:06:19;;;;;;;8.30;6.68;;;6.40;99.90;;;;;;4973609;28;20205;-84
2022/12/08 11:08:51;;;;;;;5.80;5.30;;;6.40;99.90;;;;;;4973870;28;20299;-84
2022/12/08 11:11:20;;;;;;;5.97;5.38;;;6.40;99.90;;;;;;4973441;28;20307;-84
2022/12/08 11:13:56;;;;;;;7.10;6.05;;;6.30;99.90;;;;;;4973644;28;20220;-84
2022/12/08 11:16:25;;;;;;;7.93;6.63;;;6.20;99.90;;;;;;4974065;28;20291;-84
2022/12/08 11:18:57;;;;;;;6.82;6.10;;;6.20;99.90;;;;;;4974054;28;20212;-84
2022/12/08 11:21:36;;;;;;;7.28;6.13;;;6.20;99.90;;;;;;4973987;28;20218;-84
2022/12/08 11:24:22;;;;;;;7.82;6.40;;;6.20;99.90;;;;;;4973774;28;20282;-84
2022/12/08 11:26:53;;;;;;;9.45;6.43;;;6.20;99.90;;;;;;4973202;28;20200;-84
2022/12/08 11:29:22;;;;;;;8.73;5.78;;;6.20;99.90;;;;;;4974022;28;20263;-84
2022/12/08 11:31:53;;;;;;;6.50;5.90;;;6.20;99.90;;;;;;4973653;28;20228;-84
2022/12/08 11:34:33;;;;;;;11.40;6.38;;;6.20;99.90;;;;;;4973740;28;20307;-84
2022/12/08 11:37:05;;;;;;;8.90;6.00;;;6.10;99.90;;;;;;4973023;28;20242;-84
2022/12/08 11:39:46;;;;;;;7.25;6.13;;;6.10;99.90;;;;;;4973878;28;20211;-84
2022/12/08 11:42:18;;;;;;;8.82;7.25;;;6.10;99.90;;;;;;4973525;28;20298;-84
2022/12/08 11:44:52;;;;;;;7.97;6.55;;;6.20;99.90;;;;;;4973505;28;20332;-84
2022/12/08 11:47:24;;;;;;;7.05;6.35;;;6.20;99.90;;;;;;4973576;28;20212;-84
2022/12/08 11:50:00;;;;;;;7.95;7.22;;;6.20;99.90;;;;;;4973717;28;20287;-84
2022/12/08 11:52:40;;;;;;;10.35;7.63;;;6.20;99.90;;;;;;4973236;28;20224;-84
2022/12/08 11:55:30;;;;;;;8.57;7.32;;;6.20;99.90;;;;;;4973428;28;20216;-84
2022/12/08 11:58:14;;;;;;;8.15;6.75;;;6.20;99.90;;;;;;4973566;28;20219;-84
2022/12/08 12:00:42;;;;;;;9.18;7.60;;;6.10;99.90;;;;;;4973574;28;20275;-84
2022/12/08 12:03:22;;;;;;;7.88;6.70;;;6.00;99.90;;;;;;4973463;28;20228;-84
2022/12/08 12:06:06;;;;;;;9.48;7.57;;;6.00;99.90;;;;;;4973245;28;20224;-83
2022/12/08 12:09:09;;;;;;;10.52;7.95;;;6.00;99.90;;;;;;4973178;28;20208;-84
2022/12/08 12:15:12;;;;;;;8.02;7.30;;;6.00;99.90;;;;;;4971025;28;20286;-84
2022/12/08 12:17:45;;;;;;;8.68;7.57;;;6.00;99.90;;;;;;4974367;28;20216;-84
2022/12/08 12:20:19;;;;;;;9.43;7.97;;;6.00;99.90;;;;;;4975203;28;20216;-84
2022/12/08 12:22:52;;;;;;;11.77;8.60;;;6.00;99.90;;;;;;4974144;28;20304;-89
2022/12/08 12:25:25;;;;;;;10.20;8.63;;;6.00;99.90;;;;;;4974830;28;20295;-84
2022/12/08 12:27:59;;;;;;;7.63;6.93;;;6.10;99.90;;;;;;4974381;28;20223;-89
2022/12/08 12:30:32;;;;;;;9.30;8.40;;;6.00;99.90;;;;;;4974364;28;20295;-89
2022/12/08 12:33:01;;;;;;;11.50;8.95;;;6.00;99.90;;;;;;4974059;28;20241;-88
2022/12/08 12:35:34;;;;;;;10.55;9.30;;;6.10;99.90;;;;;;4974390;28;20217;-83
2022/12/08 12:38:59;;;;;;;9.18;8.20;;;6.10;99.90;;;;;;4974430;28;20217;-88
2022/12/08 12:41:02;;;;;;;10.77;8.32;;;6.00;99.90;;;;;;4973833;28;20223;-83
2022/12/08 12:43:33;;;;;;;10.05;8.98;;;6.00;99.90;;;;;;4974243;28;20243;-83
2022/12/08 12:46:47;;;;;;;9.02;7.43;;;6.00;99.90;;;;;;4973797;28;20212;-88
2022/12/08 12:50:04;;;;;;;10.25;8.45;;;6.00;99.90;;;;;;4945640;28;20255;-88
2022/12/08 12:52:47;;;;;;;11.50;8.63;;;5.90;99.90;;;;;;4974440;28;20216;-82
2022/12/08 12:55:52;;;;;;;9.00;8.07;;;5.90;99.90;;;;;;4974052;28;20217;-88
2022/12/08 12:58:42;;;;;;;9.35;8.23;;;5.90;99.90;;;;;;4973856;28;20302;-83
2022/12/08 13:01:52;;;;;;;10.65;9.50;;;5.90;99.90;;;;;;4973940;28;20299;-84
2022/12/08 13:04:30;;;;;;;10.57;9.00;;;5.80;99.90;;;;;;4946041;28;20255;-89
2022/12/08 13:06:59;;;;;;;9.90;8.88;;;5.80;99.90;;;;;;4973685;28;20225;-89
2022/12/08 13:09:35;;;;;;;11.95;8.73;;;5.80;99.90;;;;;;4973459;28;20216;-83
2022/12/08 13:12:10;;;;;;;9.52;8.48;;;5.80;99.90;;;;;;4973618;28;20212;-83
2022/12/08 13:14:47;;;;;;;8.40;7.63;;;5.80;99.90;;;;;;4973058;28;20247;-83
2022/12/08 13:17:22;;;;;;;13.15;9.18;;;5.70;99.90;;;;;;4974064;28;20239;-88
2022/12/08 13:19:54;;;;;;;9.80;8.48;;;5.70;99.90;;;;;;4973770;28;20216;-89
2022/12/08 13:22:49;;;;;;;10.65;9.40;;;5.70;99.90;;;;;;4973309;28;20303;-83
2022/12/08 13:25:46;;;;;;;10.93;9.25;;;5.80;99.90;;;;;;4939765;28;20228;-88
2022/12/08 13:28:29;;;;;;;10.98;8.18;;;5.80;99.90;;;;;;4971979;28;20220;-88
2022/12/08 13:31:00;;;;;;;11.57;9.63;;;5.70;99.90;;;;;;4973354;28;20227;-88